createdAt,value
2023-02-10T00:00:03.170Z,2.83
2023-02-10T00:01:03.172Z,2.82
2023-02-10T00:02:03.148Z,2.80
2023-02-10T00:03:03.179Z,2.80
2023-02-10T00:04:03.148Z,2.87
2023-02-10T00:05:03.116Z,2.80
2023-02-10T00:06:03.103Z,2.86
2023-02-10T00:07:03.097Z,2.86
2023-02-10T00:08:03.086Z,2.92
2023-02-10T00:09:03.079Z,2.90
2023-02-10T00:10:03.070Z,2.92
2023-02-10T00:11:03.061Z,2.98
2023-02-10T00:12:03.050Z,2.93
2023-02-10T00:13:03.040Z,2.92
2023-02-10T00:14:03.028Z,2.85
2023-02-10T00:15:03.022Z,2.87
2023-02-10T00:16:03.061Z,2.87
2023-02-10T00:17:03.019Z,2.89
2023-02-10T00:18:02.991Z,3.00
2023-02-10T00:19:02.995Z,2.87
2023-02-10T00:20:02.973Z,2.89
2023-02-10T00:21:02.965Z,2.97
2023-02-10T00:22:02.950Z,2.89
2023-02-10T00:23:02.945Z,3.01
2023-02-10T00:24:02.941Z,2.95
2023-02-10T00:25:02.927Z,2.92
2023-02-10T00:26:02.915Z,2.95
2023-02-10T00:27:02.936Z,2.89
2023-02-10T00:28:02.935Z,2.95
2023-02-10T00:29:02.894Z,2.97
2023-02-10T00:30:02.879Z,2.93
2023-02-10T00:31:02.921Z,2.98
2023-02-10T00:32:02.856Z,2.97
2023-02-10T00:33:02.879Z,2.98
2023-02-10T00:34:02.837Z,2.92
2023-02-10T00:35:02.831Z,2.97
2023-02-10T00:36:02.820Z,2.89
2023-02-10T00:37:02.811Z,3.01
2023-02-10T00:38:02.806Z,2.93
2023-02-10T00:39:02.796Z,2.97
2023-02-10T00:40:02.780Z,2.86
2023-02-10T00:41:02.775Z,2.89
2023-02-10T00:42:02.762Z,2.90
2023-02-10T00:43:02.759Z,2.97
2023-02-10T00:44:02.743Z,2.95
2023-02-10T00:45:02.739Z,2.90
2023-02-10T00:46:02.725Z,2.90
2023-02-10T00:47:02.762Z,2.95
2023-02-10T00:48:02.705Z,2.87
2023-02-10T00:49:02.714Z,2.92
2023-02-10T00:50:02.690Z,3.00
2023-02-10T00:51:02.678Z,2.87
2023-02-10T00:52:02.666Z,2.93
2023-02-10T00:53:02.660Z,2.90
2023-02-10T00:54:02.647Z,2.86
2023-02-10T00:55:02.645Z,2.89
2023-02-10T00:56:02.631Z,2.89
2023-02-10T00:57:02.621Z,2.87
2023-02-10T00:58:02.612Z,2.92
2023-02-10T00:59:02.625Z,2.89
2023-02-10T01:00:02.611Z,2.85
2023-02-10T01:01:02.727Z,2.92
2023-02-10T01:02:02.573Z,2.87
2023-02-10T01:03:02.595Z,2.92
2023-02-10T01:04:02.557Z,2.87
2023-02-10T01:05:02.570Z,2.89
2023-02-10T01:06:02.534Z,2.97
2023-02-10T01:07:02.524Z,2.98
2023-02-10T01:08:02.523Z,3.00
2023-02-10T01:09:02.514Z,2.90
2023-02-10T01:10:02.492Z,2.98
2023-02-10T01:11:02.503Z,3.01
2023-02-10T01:12:02.472Z,3.04
2023-02-10T01:13:02.467Z,3.01
2023-02-10T01:14:02.456Z,3.04
2023-02-10T01:15:02.453Z,3.00
2023-02-10T01:16:02.475Z,3.01
2023-02-10T01:17:02.429Z,2.97
2023-02-10T01:18:02.415Z,3.03
2023-02-10T01:19:02.417Z,3.00
2023-02-10T01:20:02.393Z,2.95
2023-02-10T01:21:02.405Z,3.01
2023-02-10T01:22:02.375Z,2.98
2023-02-10T01:23:02.367Z,2.98
2023-02-10T01:24:02.355Z,2.90
2023-02-10T01:25:02.424Z,3.00
2023-02-10T01:26:02.337Z,2.93
2023-02-10T01:27:02.332Z,2.98
2023-02-10T01:28:02.352Z,3.01
2023-02-10T01:29:02.316Z,2.92
2023-02-10T01:30:02.304Z,3.04
2023-02-10T01:31:02.295Z,2.97
2023-02-10T01:32:02.279Z,2.95
2023-02-10T01:33:02.278Z,3.04
2023-02-10T01:34:02.260Z,2.98
2023-02-10T01:35:02.251Z,2.92
2023-02-10T01:36:02.240Z,2.92
2023-02-10T01:37:02.252Z,2.97
2023-02-10T01:38:02.232Z,3.04
2023-02-10T01:39:02.213Z,2.97
2023-02-10T01:40:02.211Z,3.01
2023-02-10T01:41:02.200Z,2.97
2023-02-10T01:42:02.189Z,2.97
2023-02-10T01:43:02.176Z,2.97
2023-02-10T01:44:02.167Z,2.92
2023-02-10T01:45:02.168Z,3.00
2023-02-10T01:46:02.209Z,3.04
2023-02-10T01:47:02.139Z,3.03
2023-02-10T01:48:02.134Z,2.98
2023-02-10T01:49:02.117Z,3.01
2023-02-10T01:50:02.106Z,3.03
2023-02-10T01:51:02.102Z,3.03
2023-02-10T01:52:02.114Z,3.05
2023-02-10T01:53:02.098Z,3.07
2023-02-10T01:54:02.077Z,2.97
2023-02-10T01:55:02.063Z,3.04
2023-02-10T01:56:02.060Z,3.00
2023-02-10T01:57:02.042Z,2.97
2023-02-10T01:58:02.030Z,3.00
2023-02-10T01:59:02.024Z,3.03
2023-02-10T02:00:02.027Z,3.00
2023-02-10T02:01:02.056Z,2.97
2023-02-10T02:02:02.016Z,3.01
2023-02-10T02:03:01.985Z,2.97
2023-02-10T02:04:01.978Z,3.01
2023-02-10T02:05:01.970Z,3.03
2023-02-10T02:06:01.960Z,3.01
2023-02-10T02:07:01.960Z,2.95
2023-02-10T02:08:01.937Z,3.00
2023-02-10T02:09:01.947Z,3.00
2023-02-10T02:10:01.917Z,2.92
2023-02-10T02:11:01.927Z,2.97
2023-02-10T02:12:01.897Z,2.93
2023-02-10T02:13:01.889Z,2.89
2023-02-10T02:14:01.881Z,2.90
2023-02-10T02:15:01.873Z,2.83
2023-02-10T02:16:01.861Z,2.77
2023-02-10T02:17:01.852Z,2.69
2023-02-10T02:18:01.847Z,2.64
2023-02-10T02:19:01.837Z,2.57
2023-02-10T02:20:01.824Z,2.49
2023-02-10T02:21:01.816Z,2.47
2023-02-10T02:22:01.811Z,2.50
2023-02-10T02:23:01.798Z,2.38
2023-02-10T02:24:01.790Z,2.31
2023-02-10T02:25:01.797Z,2.33
2023-02-10T02:26:01.768Z,2.22
2023-02-10T02:27:02.638Z,2.20
2023-02-10T02:28:01.784Z,2.25
2023-02-10T02:29:01.741Z,2.25
2023-02-10T02:30:01.734Z,2.18
2023-02-10T02:31:01.791Z,2.13
2023-02-10T02:32:01.714Z,2.17
2023-02-10T02:33:01.708Z,2.14
2023-02-10T02:34:01.687Z,2.11
2023-02-10T02:35:01.700Z,2.11
2023-02-10T02:36:01.680Z,2.15
2023-02-10T02:37:01.677Z,2.15
2023-02-10T02:38:01.654Z,2.20
2023-02-10T02:39:01.656Z,2.18
2023-02-10T02:40:01.631Z,2.22
2023-02-10T02:41:01.647Z,2.20
2023-02-10T02:42:01.614Z,2.24
2023-02-10T02:43:01.608Z,2.10
2023-02-10T02:44:01.601Z,2.17
2023-02-10T02:45:01.587Z,2.06
2023-02-10T02:46:01.654Z,2.07
2023-02-10T02:47:01.604Z,2.11
2023-02-10T02:48:01.558Z,2.06
2023-02-10T02:49:01.548Z,2.17
2023-02-10T02:50:01.537Z,2.11
2023-02-10T02:51:01.531Z,2.24
2023-02-10T02:52:01.665Z,2.17
2023-02-10T02:53:01.535Z,2.33
2023-02-10T02:54:01.515Z,2.33
2023-02-10T02:55:01.557Z,2.33
2023-02-10T02:56:01.583Z,2.36
2023-02-10T02:57:01.525Z,2.35
2023-02-10T02:58:01.496Z,2.32
2023-02-10T02:59:01.453Z,2.29
2023-02-10T03:00:01.497Z,2.29
2023-02-10T03:01:01.453Z,2.33
2023-02-10T03:02:01.430Z,2.33
2023-02-10T03:03:01.413Z,2.39
2023-02-10T03:04:01.485Z,2.28
2023-02-10T03:05:01.395Z,2.32
2023-02-10T03:06:01.387Z,2.35
2023-02-10T03:07:01.375Z,2.32
2023-02-10T03:08:01.365Z,2.29
2023-02-10T03:09:01.354Z,2.42
2023-02-10T03:10:01.353Z,2.38
2023-02-10T03:11:01.335Z,2.43
2023-02-10T03:12:01.338Z,2.39
2023-02-10T03:13:01.333Z,2.49
2023-02-10T03:14:01.310Z,2.51
2023-02-10T03:15:01.309Z,2.33
2023-02-10T03:16:01.377Z,2.36
2023-02-10T03:17:01.282Z,2.38
2023-02-10T03:18:01.270Z,2.33
2023-02-10T03:19:01.257Z,2.38
2023-02-10T03:20:01.251Z,2.36
2023-02-10T03:21:01.239Z,2.35
2023-02-10T03:22:01.329Z,2.36
2023-02-10T03:23:01.218Z,2.32
2023-02-10T03:24:01.211Z,2.28
2023-02-10T03:25:01.203Z,2.33
2023-02-10T03:26:01.191Z,2.29
2023-02-10T03:27:01.176Z,2.33
2023-02-10T03:28:01.189Z,2.29
2023-02-10T03:29:01.180Z,2.20
2023-02-10T03:30:01.158Z,2.07
2023-02-10T03:31:01.235Z,2.00
2023-02-10T03:32:01.162Z,2.00
2023-02-10T03:33:01.115Z,1.95
2023-02-10T03:34:01.111Z,1.87
2023-02-10T03:35:01.107Z,1.87
2023-02-10T03:36:01.096Z,1.91
2023-02-10T03:37:01.094Z,2.02
2023-02-10T03:38:01.069Z,1.94
2023-02-10T03:39:01.064Z,1.94
2023-02-10T03:40:01.086Z,2.06
2023-02-10T03:41:01.038Z,2.06
2023-02-10T03:42:01.032Z,2.02
2023-02-10T03:43:01.019Z,2.06
2023-02-10T03:44:01.017Z,2.06
2023-02-10T03:45:01.015Z,2.06
2023-02-10T03:46:01.038Z,2.14
2023-02-10T03:47:00.978Z,2.10
2023-02-10T03:48:00.967Z,2.08
2023-02-10T03:49:00.959Z,2.15
2023-02-10T03:50:00.949Z,2.22
2023-02-10T03:51:00.939Z,2.22
2023-02-10T03:52:00.935Z,2.18
2023-02-10T03:53:00.924Z,2.20
2023-02-10T03:54:00.916Z,2.32
2023-02-10T03:55:00.912Z,2.25
2023-02-10T03:56:00.909Z,2.32
2023-02-10T03:57:00.886Z,2.28
2023-02-10T03:58:00.872Z,2.33
2023-02-10T03:59:00.865Z,2.35
2023-02-10T04:00:00.850Z,2.32
2023-02-10T04:01:00.866Z,2.32
2023-02-10T04:02:00.835Z,2.31
2023-02-10T04:03:00.823Z,2.33
2023-02-10T04:04:00.827Z,2.33
2023-02-10T04:05:00.802Z,2.35
2023-02-10T04:06:00.805Z,2.29
2023-02-10T04:07:00.785Z,2.33
2023-02-10T04:08:00.773Z,2.26
2023-02-10T04:09:00.761Z,2.17
2023-02-10T04:10:00.760Z,2.06
2023-02-10T04:11:00.747Z,2.02
2023-02-10T04:12:00.738Z,1.95
2023-02-10T04:13:00.726Z,1.84
2023-02-10T04:14:00.736Z,1.80
2023-02-10T04:15:00.708Z,1.70
2023-02-10T04:16:00.746Z,1.68
2023-02-10T04:17:00.705Z,1.59
2023-02-10T04:18:00.681Z,1.48
2023-02-10T04:19:00.666Z,1.45
2023-02-10T04:20:00.655Z,1.48
2023-02-10T04:21:00.653Z,1.40
2023-02-10T04:22:00.634Z,1.32
2023-02-10T04:23:00.626Z,1.22
2023-02-10T04:24:00.623Z,1.12
2023-02-10T04:25:00.607Z,1.14
2023-02-10T04:26:00.598Z,1.10
2023-02-10T04:27:00.585Z,0.99
2023-02-10T04:28:00.599Z,0.91
2023-02-10T04:29:00.565Z,0.88
2023-02-10T04:30:00.561Z,0.86
2023-02-10T04:31:00.675Z,0.81
2023-02-10T04:32:00.596Z,0.78
2023-02-10T04:33:00.548Z,0.78
2023-02-10T04:34:00.521Z,0.73
2023-02-10T04:35:00.512Z,0.84
2023-02-10T04:36:00.899Z,0.78
2023-02-10T04:37:00.489Z,0.63
2023-02-10T04:38:00.480Z,0.74
2023-02-10T04:39:00.469Z,0.74
2023-02-10T04:40:00.462Z,0.66
2023-02-10T04:41:00.458Z,0.70
2023-02-10T04:42:00.442Z,0.50
2023-02-10T04:43:00.431Z,0.59
2023-02-10T04:44:00.421Z,0.44
2023-02-10T04:45:00.419Z,0.40
2023-02-10T04:46:00.406Z,0.37
2023-02-10T04:47:00.442Z,0.32
2023-02-10T04:48:00.382Z,0.37
2023-02-10T04:49:00.387Z,0.23
2023-02-10T04:50:00.362Z,0.29
2023-02-10T04:51:00.362Z,0.26
2023-02-10T04:52:00.338Z,0.28
2023-02-10T04:53:00.328Z,0.31
2023-02-10T04:54:00.331Z,0.37
2023-02-10T04:55:00.312Z,0.36
2023-02-10T04:56:00.299Z,0.32
2023-02-10T04:57:00.290Z,0.26
2023-02-10T04:58:00.291Z,0.26
2023-02-10T04:59:00.272Z,0.28
2023-02-10T05:00:00.265Z,0.31
2023-02-10T05:01:00.379Z,0.19
2023-02-10T05:02:00.260Z,0.16
2023-02-10T05:03:00.225Z,0.10
2023-02-10T05:04:00.217Z,0.18
2023-02-10T05:05:00.230Z,0.21
2023-02-10T05:06:00.192Z,0.10
2023-02-10T05:07:00.187Z,0.11
2023-02-10T05:08:00.375Z,0.04
2023-02-10T05:09:00.165Z,0.01
2023-02-10T05:10:00.164Z,0.03
2023-02-10T05:11:00.147Z,0.00
2023-02-10T05:12:00.130Z,0.04
2023-02-10T05:13:00.125Z,-0.02
2023-02-10T05:14:00.115Z,0.03
2023-02-10T05:15:00.121Z,0.00
2023-02-10T05:16:00.153Z,0.04
2023-02-10T05:17:00.103Z,-0.06
2023-02-10T05:18:00.093Z,-0.10
2023-02-10T05:19:00.055Z,-0.13
2023-02-10T05:20:00.047Z,-0.14
2023-02-10T05:21:00.051Z,-0.14
2023-02-10T05:22:00.039Z,-0.23
2023-02-10T05:23:00.019Z,-0.25
2023-02-10T05:24:00.004Z,-0.29
2023-02-10T05:24:59.991Z,-0.26
2023-02-10T05:25:59.984Z,-0.25
2023-02-10T05:26:59.972Z,-0.17
2023-02-10T05:27:59.980Z,-0.21
2023-02-10T05:28:59.951Z,-0.25
2023-02-10T05:29:59.959Z,-0.14
2023-02-10T05:30:59.969Z,-0.35
2023-02-10T05:32:00.022Z,-0.28
2023-02-10T05:32:59.910Z,-0.38
2023-02-10T05:33:59.902Z,-0.35
2023-02-10T05:34:59.890Z,-0.38
2023-02-10T05:35:59.890Z,-0.47
2023-02-10T05:36:59.983Z,-0.47
2023-02-10T05:37:59.864Z,-0.44
2023-02-10T05:38:59.846Z,-0.52
2023-02-10T05:39:59.850Z,-0.49
2023-02-10T05:41:00.240Z,-0.46
2023-02-10T05:41:59.820Z,-0.49
2023-02-10T05:42:59.818Z,-0.47
2023-02-10T05:43:59.804Z,-0.46
2023-02-10T05:44:59.805Z,-0.49
2023-02-10T05:45:59.834Z,-0.35
2023-02-10T05:46:59.766Z,-0.41
2023-02-10T05:47:59.757Z,-0.35
2023-02-10T05:48:59.746Z,-0.38
2023-02-10T05:49:59.739Z,-0.35
2023-02-10T05:50:59.723Z,-0.38
2023-02-10T05:51:59.712Z,-0.32
2023-02-10T05:52:59.730Z,-0.39
2023-02-10T05:53:59.697Z,-0.35
2023-02-10T05:54:59.680Z,-0.35
2023-02-10T05:55:59.672Z,-0.50
2023-02-10T05:56:59.656Z,-0.46
2023-02-10T05:57:59.654Z,-0.54
2023-02-10T05:58:59.636Z,-0.56
2023-02-10T05:59:59.633Z,-0.61
2023-02-10T06:00:59.622Z,-0.64
2023-02-10T06:01:59.646Z,-0.61
2023-02-10T06:02:59.656Z,-0.65
2023-02-10T06:03:59.585Z,-0.74
2023-02-10T06:04:59.580Z,-0.68
2023-02-10T06:05:59.566Z,-0.80
2023-02-10T06:06:59.672Z,-0.78
2023-02-10T06:07:59.564Z,-0.77
2023-02-10T06:08:59.554Z,-0.70
2023-02-10T06:09:59.521Z,-0.83
2023-02-10T06:10:59.518Z,-0.75
2023-02-10T06:11:59.506Z,-0.82
2023-02-10T06:12:59.489Z,-0.86
2023-02-10T06:13:59.479Z,-0.74
2023-02-10T06:14:59.484Z,-0.86
2023-02-10T06:15:59.464Z,-0.85
2023-02-10T06:16:59.450Z,-0.91
2023-02-10T06:17:59.465Z,-0.96
2023-02-10T06:18:59.424Z,-0.93
2023-02-10T06:19:59.416Z,-0.94
2023-02-10T06:20:59.410Z,-0.91
2023-02-10T06:21:59.394Z,-0.89
2023-02-10T06:22:59.386Z,-0.90
2023-02-10T06:23:59.370Z,-0.91
2023-02-10T06:24:59.386Z,-0.97
2023-02-10T06:25:59.369Z,-0.89
2023-02-10T06:26:59.340Z,-0.80
2023-02-10T06:27:59.426Z,-0.94
2023-02-10T06:28:59.322Z,-0.86
2023-02-10T06:29:59.305Z,-0.83
2023-02-10T06:30:59.519Z,-0.71
2023-02-10T06:31:59.281Z,-0.78
2023-02-10T06:32:59.271Z,-0.78
2023-02-10T06:33:59.261Z,-0.78
2023-02-10T06:34:59.248Z,-0.89
2023-02-10T06:35:59.237Z,-0.90
2023-02-10T06:36:59.224Z,-0.78
2023-02-10T06:37:59.216Z,-0.77
2023-02-10T06:38:59.206Z,-0.68
2023-02-10T06:39:59.192Z,-0.80
2023-02-10T06:40:59.205Z,-0.67
2023-02-10T06:41:59.172Z,-0.70
2023-02-10T06:42:59.163Z,-0.68
2023-02-10T06:43:59.147Z,-0.56
2023-02-10T06:44:59.148Z,-0.50
2023-02-10T06:45:59.149Z,-0.47
2023-02-10T06:46:59.364Z,-0.47
2023-02-10T06:47:59.107Z,-0.32
2023-02-10T06:48:59.093Z,-0.34
2023-02-10T06:49:59.089Z,-0.31
2023-02-10T06:50:59.072Z,-0.31
2023-02-10T06:51:59.064Z,-0.29
2023-02-10T06:52:59.050Z,-0.20
2023-02-10T06:53:59.040Z,-0.23
2023-02-10T06:54:59.038Z,-0.28
2023-02-10T06:55:59.033Z,-0.20
2023-02-10T06:56:59.025Z,-0.21
2023-02-10T06:57:58.995Z,-0.13
2023-02-10T06:58:58.983Z,-0.20
2023-02-10T06:59:58.979Z,-0.10
2023-02-10T07:00:58.997Z,-0.15
2023-02-10T07:01:58.956Z,-0.06
2023-02-10T07:02:58.944Z,0.01
2023-02-10T07:03:58.932Z,0.01
2023-02-10T07:04:58.939Z,0.01
2023-02-10T07:05:58.915Z,0.18
2023-02-10T07:06:58.900Z,0.07
2023-02-10T07:07:58.893Z,0.12
2023-02-10T07:08:58.884Z,0.16
2023-02-10T07:09:58.870Z,0.21
2023-02-10T07:10:58.860Z,0.12
2023-02-10T07:11:58.851Z,0.10
2023-02-10T07:12:58.858Z,0.18
2023-02-10T07:13:58.830Z,0.23
2023-02-10T07:14:58.816Z,0.29
2023-02-10T07:15:58.891Z,0.22
2023-02-10T07:16:58.796Z,0.28
2023-02-10T07:17:58.783Z,0.37
2023-02-10T07:18:58.783Z,0.32
2023-02-10T07:19:58.763Z,0.43
2023-02-10T07:20:58.757Z,0.32
2023-02-10T07:21:58.785Z,0.44
2023-02-10T07:22:58.732Z,0.46
2023-02-10T07:23:58.727Z,0.50
2023-02-10T07:24:58.722Z,0.59
2023-02-10T07:25:58.701Z,0.52
2023-02-10T07:26:58.694Z,0.60
2023-02-10T07:27:58.731Z,0.60
2023-02-10T07:28:58.696Z,0.56
2023-02-10T07:29:58.656Z,0.69
2023-02-10T07:30:58.794Z,0.74
2023-02-10T07:31:58.662Z,0.70
2023-02-10T07:32:58.629Z,0.78
2023-02-10T07:33:58.616Z,0.78
2023-02-10T07:34:58.606Z,0.76
2023-02-10T07:35:58.592Z,0.81
2023-02-10T07:36:58.585Z,0.86
2023-02-10T07:37:58.576Z,0.87
2023-02-10T07:38:58.570Z,0.95
2023-02-10T07:39:58.548Z,0.98
2023-02-10T07:40:58.542Z,0.92
2023-02-10T07:41:58.532Z,1.02
2023-02-10T07:42:58.518Z,1.01
2023-02-10T07:43:58.507Z,1.08
2023-02-10T07:44:58.517Z,0.99
2023-02-10T07:45:58.556Z,1.10
2023-02-10T07:46:58.475Z,1.05
2023-02-10T07:47:58.474Z,1.12
2023-02-10T07:48:58.455Z,1.10
2023-02-10T07:49:58.448Z,1.13
2023-02-10T07:50:58.439Z,1.12
2023-02-10T07:51:58.421Z,1.08
2023-02-10T07:52:58.414Z,1.23
2023-02-10T07:53:58.404Z,1.19
2023-02-10T07:54:58.395Z,1.22
2023-02-10T07:55:58.382Z,1.13
2023-02-10T07:56:58.368Z,1.20
2023-02-10T07:57:58.364Z,1.26
2023-02-10T07:58:58.349Z,1.26
2023-02-10T07:59:58.352Z,1.30
2023-02-10T08:00:58.345Z,1.23
2023-02-10T08:01:58.391Z,1.22
2023-02-10T08:02:58.308Z,1.34
2023-02-10T08:03:58.315Z,1.23
2023-02-10T08:04:58.334Z,1.17
2023-02-10T08:05:58.275Z,1.28
2023-02-10T08:06:58.282Z,1.26
2023-02-10T08:07:58.256Z,1.31
2023-02-10T08:08:58.245Z,1.24
2023-02-10T08:09:58.241Z,1.32
2023-02-10T08:10:58.224Z,1.34
2023-02-10T08:11:58.211Z,1.35
2023-02-10T08:12:58.212Z,1.44
2023-02-10T08:13:58.192Z,1.45
2023-02-10T08:14:58.201Z,1.34
2023-02-10T08:15:58.204Z,1.40
2023-02-10T08:16:58.180Z,1.53
2023-02-10T08:17:58.153Z,1.41
2023-02-10T08:18:59.332Z,1.45
2023-02-10T08:19:58.131Z,1.44
2023-02-10T08:20:58.122Z,1.52
2023-02-10T08:21:58.108Z,1.56
2023-02-10T08:22:58.112Z,1.56
2023-02-10T08:23:58.090Z,1.56
2023-02-10T08:24:58.083Z,1.58
2023-02-10T08:25:58.070Z,1.56
2023-02-10T08:26:58.061Z,1.62
2023-02-10T08:27:58.064Z,1.71
2023-02-10T08:28:58.041Z,1.70
2023-02-10T08:29:58.032Z,1.71
2023-02-10T08:30:58.077Z,1.76
2023-02-10T08:31:58.009Z,1.84
2023-02-10T08:32:58.020Z,1.81
2023-02-10T08:33:57.987Z,1.84
2023-02-10T08:34:57.980Z,1.81
2023-02-10T08:35:57.966Z,1.77
2023-02-10T08:36:57.965Z,1.87
2023-02-10T08:37:57.946Z,1.80
2023-02-10T08:38:57.939Z,1.87
2023-02-10T08:39:57.926Z,1.94
2023-02-10T08:40:57.920Z,1.88
2023-02-10T08:41:57.912Z,1.92
2023-02-10T08:42:57.897Z,1.87
2023-02-10T08:43:57.888Z,1.92
2023-02-10T08:44:57.880Z,1.81
2023-02-10T08:45:57.867Z,1.88
2023-02-10T08:46:57.855Z,1.94
2023-02-10T08:47:57.844Z,1.92
2023-02-10T08:48:57.860Z,1.91
2023-02-10T08:49:57.825Z,1.89
2023-02-10T08:50:57.818Z,2.06
2023-02-10T08:51:57.824Z,2.06
2023-02-10T08:52:57.794Z,1.99
2023-02-10T08:53:57.796Z,2.11
2023-02-10T08:54:57.783Z,2.04
2023-02-10T08:56:00.423Z,2.06
2023-02-10T08:56:57.755Z,2.06
2023-02-10T08:57:57.743Z,2.11
2023-02-10T08:58:57.735Z,2.13
2023-02-10T08:59:57.727Z,2.15
2023-02-10T09:00:57.711Z,2.20
2023-02-10T09:01:57.776Z,2.24
2023-02-10T09:02:57.752Z,2.35
2023-02-10T09:03:57.702Z,2.32
2023-02-10T09:05:09.243Z,2.29
2023-02-10T09:05:57.662Z,2.38
2023-02-10T09:06:57.658Z,2.36
2023-02-10T09:07:57.652Z,2.43
2023-02-10T09:08:57.634Z,2.39
2023-02-10T09:09:57.629Z,2.42
2023-02-10T09:10:57.615Z,2.42
2023-02-10T09:11:57.608Z,2.50
2023-02-10T09:12:57.604Z,2.46
2023-02-10T09:13:57.582Z,2.50
2023-02-10T09:14:57.572Z,2.46
2023-02-10T09:15:57.581Z,2.54
2023-02-10T09:16:57.555Z,2.61
2023-02-10T09:17:57.547Z,2.56
2023-02-10T09:18:57.544Z,2.53
2023-02-10T09:19:57.522Z,2.64
2023-02-10T09:20:57.533Z,2.62
2023-02-10T09:21:57.505Z,2.68
2023-02-10T09:22:57.498Z,2.62
2023-02-10T09:23:57.485Z,2.74
2023-02-10T09:24:57.473Z,2.67
2023-02-10T09:25:57.465Z,2.74
2023-02-10T09:26:57.457Z,2.85
2023-02-10T09:27:57.472Z,2.80
2023-02-10T09:28:57.436Z,2.87
2023-02-10T09:29:57.425Z,2.86
2023-02-10T09:30:57.435Z,2.85
2023-02-10T09:31:57.487Z,2.89
2023-02-10T09:32:57.400Z,2.89
2023-02-10T09:33:57.392Z,2.92
2023-02-10T09:34:57.382Z,2.87
2023-02-10T09:35:57.366Z,2.97
2023-02-10T09:36:57.385Z,2.95
2023-02-10T09:37:57.346Z,2.93
2023-02-10T09:38:57.338Z,2.98
2023-02-10T09:39:57.329Z,3.01
2023-02-10T09:40:57.319Z,3.05
2023-02-10T09:41:57.306Z,2.97
2023-02-10T09:42:57.297Z,3.04
2023-02-10T09:43:57.291Z,2.97
2023-02-10T09:44:57.279Z,3.07
2023-02-10T09:45:57.327Z,3.04
2023-02-10T09:46:57.258Z,3.00
2023-02-10T09:47:57.247Z,3.10
2023-02-10T09:48:57.240Z,3.08
2023-02-10T09:49:57.227Z,3.07
2023-02-10T09:50:57.227Z,3.13
2023-02-10T09:51:57.208Z,3.07
2023-02-10T09:52:57.220Z,3.10
2023-02-10T09:53:57.190Z,3.19
2023-02-10T09:54:57.188Z,3.19
2023-02-10T09:55:57.372Z,3.31
2023-02-10T09:56:57.175Z,3.13
2023-02-10T09:57:57.155Z,3.26
2023-02-10T09:58:57.171Z,3.29
2023-02-10T09:59:57.158Z,3.22
2023-02-10T10:00:57.202Z,3.36
2023-02-10T10:01:57.146Z,3.37
2023-02-10T10:02:57.116Z,3.37
2023-02-10T10:03:57.098Z,3.50
2023-02-10T10:04:57.089Z,3.48
2023-02-10T10:05:57.124Z,3.41
2023-02-10T10:06:57.078Z,3.45
2023-02-10T10:07:57.061Z,3.51
2023-02-10T10:08:57.175Z,3.60
2023-02-10T10:09:57.047Z,3.56
2023-02-10T10:10:57.037Z,3.58
2023-02-10T10:11:57.029Z,3.60
2023-02-10T10:12:57.018Z,3.60
2023-02-10T10:13:57.004Z,3.58
2023-02-10T10:14:57.000Z,3.60
2023-02-10T10:15:57.209Z,3.59
2023-02-10T10:16:56.978Z,3.58
2023-02-10T10:17:56.966Z,3.59
2023-02-10T10:18:56.969Z,3.70
2023-02-10T10:19:56.954Z,3.74
2023-02-10T10:20:56.947Z,3.76
2023-02-10T10:21:56.935Z,3.73
2023-02-10T10:22:56.926Z,3.80
2023-02-10T10:23:56.909Z,3.81
2023-02-10T10:24:56.926Z,3.91
2023-02-10T10:25:56.894Z,3.96
2023-02-10T10:26:56.890Z,3.99
2023-02-10T10:27:56.908Z,3.96
2023-02-10T10:28:56.865Z,3.99
2023-02-10T10:29:56.853Z,4.04
2023-02-10T10:30:56.900Z,4.16
2023-02-10T10:31:56.981Z,4.13
2023-02-10T10:32:56.828Z,4.16
2023-02-10T10:33:56.817Z,4.16
2023-02-10T10:34:56.811Z,4.20
2023-02-10T10:35:56.798Z,4.16
2023-02-10T10:36:56.790Z,4.13
2023-02-10T10:37:56.782Z,4.20
2023-02-10T10:38:56.815Z,4.16
2023-02-10T10:39:56.760Z,4.20
2023-02-10T10:40:56.789Z,4.13
2023-02-10T10:41:56.740Z,4.08
2023-02-10T10:42:56.733Z,4.20
2023-02-10T10:43:56.726Z,4.14
2023-02-10T10:44:56.716Z,4.08
2023-02-10T10:45:56.809Z,4.16
2023-02-10T10:46:56.701Z,4.17
2023-02-10T10:47:56.681Z,4.20
2023-02-10T10:48:56.678Z,4.20
2023-02-10T10:49:56.669Z,4.17
2023-02-10T10:50:56.658Z,4.17
2023-02-10T10:51:56.651Z,4.19
2023-02-10T10:52:56.639Z,4.19
2023-02-10T10:53:56.631Z,4.17
2023-02-10T10:54:56.624Z,4.23
2023-02-10T10:55:56.615Z,4.24
2023-02-10T10:56:56.622Z,4.34
2023-02-10T10:57:56.600Z,4.24
2023-02-10T10:58:56.587Z,4.31
2023-02-10T10:59:56.574Z,4.23
2023-02-10T11:00:56.597Z,4.34
2023-02-10T11:01:56.613Z,4.31
2023-02-10T11:02:56.558Z,4.41
2023-02-10T11:03:56.541Z,4.32
2023-02-10T11:04:56.530Z,4.35
2023-02-10T11:05:56.520Z,4.38
2023-02-10T11:06:56.512Z,4.35
2023-02-10T11:07:56.500Z,4.38
2023-02-10T11:08:56.496Z,4.40
2023-02-10T11:09:56.483Z,4.34
2023-02-10T11:10:56.486Z,4.44
2023-02-10T11:11:56.464Z,4.40
2023-02-10T11:12:56.482Z,4.38
2023-02-10T11:13:56.446Z,4.44
2023-02-10T11:14:56.440Z,4.48
2023-02-10T11:15:56.428Z,4.41
2023-02-10T11:16:56.454Z,4.42
2023-02-10T11:17:56.414Z,4.42
2023-02-10T11:18:56.403Z,4.45
2023-02-10T11:19:56.404Z,4.55
2023-02-10T11:20:56.380Z,4.56
2023-02-10T11:21:56.377Z,4.56
2023-02-10T11:22:56.361Z,4.59
2023-02-10T11:23:56.356Z,4.68
2023-02-10T11:24:56.355Z,4.62
2023-02-10T11:25:56.353Z,4.71
2023-02-10T11:26:56.329Z,4.75
2023-02-10T11:27:56.368Z,4.71
2023-02-10T11:28:56.416Z,4.73
2023-02-10T11:29:56.306Z,4.82
2023-02-10T11:30:56.395Z,4.82
2023-02-10T11:31:56.501Z,4.77
2023-02-10T11:32:56.295Z,4.89
2023-02-10T11:33:56.265Z,4.87
2023-02-10T11:34:56.261Z,5.02
2023-02-10T11:35:56.247Z,4.93
2023-02-10T11:36:56.235Z,4.96
2023-02-10T11:37:56.227Z,5.02
2023-02-10T11:38:56.216Z,5.04
2023-02-10T11:39:56.207Z,5.04
2023-02-10T11:40:56.198Z,5.11
2023-02-10T11:41:56.191Z,5.07
2023-02-10T11:42:56.178Z,4.99
2023-02-10T11:43:56.171Z,5.08
2023-02-10T11:44:56.217Z,5.05
2023-02-10T11:45:57.780Z,5.12
2023-02-10T11:46:56.142Z,5.10
2023-02-10T11:47:56.135Z,5.10
2023-02-10T11:48:56.128Z,5.10
2023-02-10T11:49:56.125Z,5.11
2023-02-10T11:50:56.110Z,5.12
2023-02-10T11:51:56.100Z,5.10
2023-02-10T11:52:56.092Z,5.15
2023-02-10T11:53:56.094Z,5.15
2023-02-10T11:54:56.073Z,5.08
2023-02-10T11:55:56.066Z,5.12
2023-02-10T11:56:56.054Z,5.12
2023-02-10T11:57:56.060Z,5.18
2023-02-10T11:58:56.035Z,5.21
2023-02-10T11:59:56.029Z,5.17
2023-02-10T12:00:56.038Z,5.14
2023-02-10T12:01:56.468Z,5.14
2023-02-10T12:02:56.060Z,5.14
2023-02-10T12:03:55.999Z,5.08
2023-02-10T12:04:55.981Z,5.18
2023-02-10T12:05:56.025Z,5.15
2023-02-10T12:06:55.991Z,5.11
2023-02-10T12:07:56.758Z,5.15
2023-02-10T12:08:55.940Z,5.11
2023-02-10T12:09:55.966Z,5.08
2023-02-10T12:10:55.928Z,5.10
2023-02-10T12:11:55.971Z,5.12
2023-02-10T12:12:55.904Z,5.11
2023-02-10T12:13:55.903Z,5.07
2023-02-10T12:14:55.905Z,5.15
2023-02-10T12:15:55.919Z,5.10
2023-02-10T12:16:55.897Z,5.07
2023-02-10T12:17:55.862Z,5.10
2023-02-10T12:18:55.855Z,5.11
2023-02-10T12:19:55.851Z,5.14
2023-02-10T12:20:55.834Z,5.11
2023-02-10T12:21:55.826Z,5.10
2023-02-10T12:22:55.823Z,5.12
2023-02-10T12:23:55.809Z,5.15
2023-02-10T12:24:55.808Z,5.14
2023-02-10T12:25:55.791Z,5.18
2023-02-10T12:26:55.789Z,5.26
2023-02-10T12:27:55.818Z,5.25
2023-02-10T12:28:55.771Z,5.26
2023-02-10T12:29:55.755Z,5.38
2023-02-10T12:31:00.243Z,5.48
2023-02-10T12:31:55.846Z,5.47
2023-02-10T12:32:55.754Z,5.53
2023-02-10T12:33:55.721Z,5.65
2023-02-10T12:34:55.718Z,5.57
2023-02-10T12:35:55.704Z,5.65
2023-02-10T12:36:55.698Z,5.66
2023-02-10T12:37:55.687Z,5.72
2023-02-10T12:38:55.678Z,5.66
2023-02-10T12:39:55.670Z,5.82
2023-02-10T12:40:55.660Z,5.87
2023-02-10T12:41:55.652Z,5.86
2023-02-10T12:42:55.642Z,5.87
2023-02-10T12:43:55.634Z,5.98
2023-02-10T12:44:55.621Z,5.91
2023-02-10T12:45:55.665Z,5.98
2023-02-10T12:46:55.652Z,6.04
2023-02-10T12:47:55.600Z,5.94
2023-02-10T12:48:55.623Z,5.91
2023-02-10T12:49:55.609Z,6.01
2023-02-10T12:50:55.570Z,6.02
2023-02-10T12:51:55.565Z,5.99
2023-02-10T12:52:55.573Z,5.98
2023-02-10T12:53:55.559Z,5.99
2023-02-10T12:54:55.541Z,6.07
2023-02-10T12:55:55.527Z,5.97
2023-02-10T12:56:55.521Z,5.99
2023-02-10T12:57:55.512Z,5.99
2023-02-10T12:58:55.508Z,5.97
2023-02-10T12:59:55.496Z,6.04
2023-02-10T13:00:55.485Z,6.08
2023-02-10T13:01:55.542Z,6.09
2023-02-10T13:02:55.504Z,6.11
2023-02-10T13:03:55.472Z,6.17
2023-02-10T13:04:55.471Z,6.16
2023-02-10T13:05:55.440Z,6.14
2023-02-10T13:06:55.897Z,6.14
2023-02-10T13:07:55.429Z,6.14
2023-02-10T13:08:55.412Z,6.14
2023-02-10T13:09:57.701Z,6.22
2023-02-10T13:10:55.414Z,6.19
2023-02-10T13:11:55.389Z,6.19
2023-02-10T13:12:55.380Z,6.12
2023-02-10T13:13:55.373Z,6.20